Bintulu, Malaysia
Current Conditions -  °F | °C
As of 9:00 AM on Wednesday 26 Nov 2014 (Local Time) from WBGB Reporting Station
Light Rain Light Rain  
Wind Chill: 79°   Ceiling: 14000
Heat Index: 82°   Visibility: 5mi
Dew Point: 75°   Wind: 1mph
Humidity: 89%   Direction: 30°NNE
Pressure: 29.83"   Gusts: NA
Location:  3.17°N, 113.03°E
Report Text: WBGB 260100Z 03001KT 8000 -RA FEW005 SCT014 OVC140 26/24 Q1010
Loading
Personal Weather Stations






























Interactive Weather Map New forecast layout! Learn more

10-Day Weather Forecast

Advertisements
Track Severe Weather on mobile